• Join FlightAware (Why Join?)
  • Login
  • US Flag 
05:55AM EDT


 

Airport Tracker/Info


-or-


 

Live Flight TrackerFlight Track Log ✈ AAL2007 ✈ 12-Jun-2013 ✈ KORD - KAUS

Flight Track Log - Related Links

Times and Time Zones

All times are in EDT time to prevent confusion due to time zone crossing. See the AAL2007 flight status page for this flight to view local times or setup timezone preferences in your user account.

Time Position Orientation Groundspeed Altitude Reporting Facility
EDT Latitude Longitude Course Direction KTS MPH feet Rate Location/Type
06:24PM 41.9833 -87.8833 207° Southwest 167 192 2,000  Level Chicago TRACON
06:25PM 41.9500 -87.8333 132° Southeast 185 213 3,600 1,560 Climbing Chicago TRACON
06:26PM 41.9242 -87.8056 141° Southeast 193 222 4,400 840 Climbing Chicago Center
06:27PM 41.7032 -88.1854 201° Southwest  Level Estimated
06:27PM 41.8683 -87.7278 134° Southeast 268 308 5,000  Level Chicago Center
06:28PM 41.6102 -88.2777 197° South  Level Estimated
06:28PM 41.8142 -87.6639 139° Southeast 269 310 5,000  Level Chicago Center
06:29PM 41.5172 -88.3698 194° South  Level Estimated
06:29PM 41.7461 -87.6194 154° Southeast 273 314 7,000  Level Chicago Center
06:30PM 41.4241 -88.4617 207° Southwest  Level Estimated
06:30PM 41.6742 -87.5769 156° South 291 335 10,100  Level Chicago Center
06:31PM 41.6306 -87.6492 231° Southwest 264 304 12,600 2,700 Climbing Chicago Center
06:32PM 41.5403 -87.6875 198° South 289 333 15,800 2,520 Climbing Chicago Center
06:33PM 41.4669 -87.7319 204° Southwest 294 338 17,800 1,620 Climbing Chicago Center
06:34PM 41.3958 -87.7914 212° Southwest 300 345 19,200 1,200 Climbing Chicago Center
06:35PM 41.3158 -87.8572 212° Southwest 334 384 20,300 1,020 Climbing Chicago Center
06:36PM 41.2319 -87.9250 211° Southwest 349 402 21,400 1,140 Climbing Chicago Center
06:37PM 41.1478 -87.9950 212° Southwest 355 409 22,700 1,140 Climbing Chicago Center
06:38PM 41.0614 -88.0653 212° Southwest 363 418 23,800 600 Climbing Chicago Center
06:39PM 40.9747 -88.1361 212° Southwest 366 421 24,000 120 Climbing Chicago Center
06:40PM 40.8881 -88.2072 212° Southwest 367 422 24,100 480 Climbing Chicago Center
06:41PM 40.7781 -88.2967 212° Southwest 386 444 25,100 1,140 Climbing Chicago Center
06:42PM 40.6794 -88.3783 212° Southwest 414 476 26,500 1,380 Climbing Chicago Center
06:43PM 40.5786 -88.4583 211° Southwest 422 486 28,000 1,320 Climbing Chicago Center
06:44PM 40.4781 -88.5406 212° Southwest 425 489 29,300 1,380 Climbing Chicago Center
06:45PM 40.3744 -88.6228 211° Southwest 432 497 30,900 1,740 Climbing Chicago Center
06:46PM 40.2822 -88.7106 216° Southwest 412 474 32,900 1,320 Climbing Chicago Center
06:47PM 40.2025 -88.8128 224° Southwest 401 461 33,700 480 Climbing Chicago Center
06:48PM 40.1236 -88.9147 225° Southwest 398 458 34,000 120 Climbing Chicago Center
06:49PM 40.0436 -89.0153 224° Southwest 397 457 34,000  Level Chicago Center
06:50PM 39.9478 -89.1378 224° Southwest 398 458 34,000  Level Chicago Center
06:51PM 39.8831 -89.2203 224° Southwest 400 460 34,000  Level Kansas City Center
06:52PM 39.8033 -89.3206 224° Southwest 398 458 34,000  Level Kansas City Center
06:54PM 39.7233 -89.4214 224° Southwest 399 459 34,000  Level Kansas City Center
06:55PM 39.6317 -89.5350 224° Southwest 400 460 34,000  Level Kansas City Center
06:56PM 39.5506 -89.6347 223° Southwest 402 463 34,000  Level Kansas City Center
06:57PM 39.4703 -89.7364 224° Southwest 404 465 34,000  Level Kansas City Center
06:58PM 39.3883 -89.8372 224° Southwest 407 468 34,000  Level Kansas City Center
06:59PM 39.2906 -89.9589 224° Southwest 408 470 34,000  Level Kansas City Center
07:00PM 39.2086 -90.0597 224° Southwest 407 468 34,000  Level Kansas City Center
07:01PM 39.1258 -90.1617 224° Southwest 412 474 34,000  Level Kansas City Center
07:02PM 39.0431 -90.2631 224° Southwest 413 475 34,000  Level Kansas City Center
07:03PM 38.9603 -90.3639 223° Southwest 414 476 34,000  Level Kansas City Center
07:04PM 38.8683 -90.4781 224° Southwest 410 472 34,000  Level Kansas City Center
07:05PM 38.7772 -90.5764 220° Southwest 420 483 34,000  Level Kansas City Center
07:06PM 38.6911 -90.6756 222° Southwest 408 470 34,000  Level Kansas City Center
07:07PM 38.6036 -90.7803 223° Southwest 417 480 34,000  Level Kansas City Center
07:08PM 38.5181 -90.8783 222° Southwest 418 481 34,000  Level Kansas City Center
07:09PM 38.4150 -90.9956 222° Southwest 417 480 34,000  Level Kansas City Center
07:10PM 38.3281 -91.0936 222° Southwest 417 480 34,000  Level Kansas City Center
07:11PM 38.2419 -91.1911 222° Southwest 417 480 34,000  Level Kansas City Center
07:12PM 38.1519 -91.2903 221° Southwest 417 480 34,000  Level Kansas City Center
07:13PM 38.0639 -91.3894 222° Southwest 421 484 34,100  Climbing Kansas City Center
07:14PM 37.9761 -91.4883 222° Southwest 420 483 34,000 -60 Descending Kansas City Center
07:15PM 37.8703 -91.6097 222° Southwest 423 487 34,000  Level Kansas City Center
07:16PM 37.7803 -91.7094 221° Southwest 426 490 34,000  Level Kansas City Center
07:17PM 37.6911 -91.8117 222° Southwest 429 494 34,000  Level Kansas City Center
07:18PM 37.6003 -91.9131 222° Southwest 431 496 34,000  Level Kansas City Center
07:19PM 37.5092 -92.0144 221° Southwest 433 498 34,000  Level Kansas City Center
07:20PM 37.4169 -92.1147 221° Southwest 433 498 34,000  Level Kansas City Center
07:22PM 37.2353 -92.3131 221° Southwest 430 495 34,000  Level Kansas City Center
07:23PM 37.1258 -92.4342 221° Southwest 435 501 34,000  Level Kansas City Center
07:25PM 37.0353 -92.5325 221° Southwest 431 496 34,000  Level Kansas City Center
07:26PM 36.9442 -92.6311 221° Southwest 431 496 34,000  Level Kansas City Center
07:27PM 36.8531 -92.7286 221° Southwest 430 495 34,000  Level Kansas City Center
07:28PM 36.7631 -92.8253 221° Southwest 428 493 34,000  Level Kansas City Center
07:29PM 36.6719 -92.9214 220° Southwest 428 493 34,000  Level Kansas City Center
07:30PM 36.5708 -93.0308 221° Southwest 430 495 34,000  Level Kansas City Center
07:31PM 36.4800 -93.1292 221° Southwest 433 498 34,000  Level Kansas City Center
07:32PM 36.3897 -93.2275 221° Southwest 434 499 34,000  Level Kansas City Center
07:33PM 36.2986 -93.3228 220° Southwest 432 497 34,000  Level Kansas City Center
07:34PM 36.2022 -93.4253 221° Southwest 436 502 34,000  Level Memphis Center
07:35PM 36.1103 -93.5222 220° Southwest 436 502 34,000  Level Memphis Center
07:36PM 36.0200 -93.6189 221° Southwest 436 502 34,000  Level Memphis Center
07:37PM 35.9300 -93.7153 221° Southwest 436 502 34,000  Level Memphis Center
07:38PM 35.8336 -93.8111 219° Southwest 436 502 34,000  Level Memphis Center
07:39PM 35.7433 -93.9044 220° Southwest 436 502 34,000  Level Memphis Center
07:40PM 35.6508 -94.0003 220° Southwest 436 502 34,000  Level Memphis Center
07:41PM 35.5606 -94.0933 220° Southwest 436 502 34,000  Level Memphis Center
07:42PM 35.4767 -94.1786 220° Southwest 441 507 34,000  Level Memphis Center
07:43PM 35.3819 -94.2736 219° Southwest 441 507 34,000  Level Memphis Center
07:45PM 35.1319 -94.4689 213° Southwest 441 507 34,000  Level Fort Worth Center
07:46PM 35.0336 -94.5458 213° Southwest 441 507 34,000  Level Fort Worth Center
07:47PM 34.9311 -94.6228 212° Southwest 436 502 34,000  Level Fort Worth Center
07:48PM 34.8203 -94.7072 212° Southwest 436 502 34,000  Level Fort Worth Center
07:49PM 34.7175 -94.7864 212° Southwest 436 502 34,000  Level Fort Worth Center
07:50PM 34.6169 -94.8650 213° Southwest 436 502 34,000  Level Fort Worth Center
07:51PM 34.5142 -94.9361 210° Southwest 436 502 34,000  Level Fort Worth Center
07:52PM 34.4114 -95.0172 213° Southwest 436 502 34,000  Level Fort Worth Center
07:53PM 34.3083 -95.0928 211° Southwest 436 502 34,000  Level Fort Worth Center
07:54PM 34.2056 -95.1683 211° Southwest 436 502 34,000  Level Fort Worth Center
07:55PM 34.1025 -95.2464 212° Southwest 441 507 34,000  Level Fort Worth Center
07:56PM 34.0014 -95.3189 211° Southwest 441 507 34,000  Level Fort Worth Center
07:57PM 33.8983 -95.3967 212° Southwest 441 507 34,000  Level Fort Worth Center
07:58PM 33.7931 -95.4714 211° Southwest 441 507 34,000  Level Fort Worth Center
07:59PM 33.6900 -95.5486 212° Southwest 441 507 34,000  Level Fort Worth Center
08:00PM 33.5969 -95.6156 211° Southwest 441 507 34,000  Level Fort Worth Center
08:01PM 33.4833 -95.6950 210° Southwest 441 507 34,000  Level Fort Worth Center
08:02PM 33.3800 -95.7717 212° Southwest 441 507 34,000  Level Fort Worth Center
08:03PM 33.2744 -95.8456 210° Southwest 441 507 34,000  Level Fort Worth Center
08:04PM 33.1711 -95.9219 212° Southwest 441 507 34,000  Level Fort Worth Center
08:05PM 33.0697 -95.9981 212° Southwest 441 507 34,000  Level Fort Worth Center
08:06PM 32.9661 -96.0714 211° Southwest 441 507 34,000  Level Fort Worth Center
08:07PM 32.8647 -96.1472 212° Southwest 441 507 34,000  Level Fort Worth Center
08:08PM 32.7589 -96.2203 210° Southwest 441 507 34,000  Level Fort Worth Center
08:09PM 32.6550 -96.2931 211° Southwest 441 507 34,000  Level Fort Worth Center
08:10PM 32.5514 -96.3683 211° Southwest 441 507 34,000  Level Fort Worth Center
08:11PM 32.4475 -96.4408 210° Southwest 441 507 34,000  Level Fort Worth Center
08:12PM 32.3417 -96.5133 210° Southwest 441 507 34,000  Level Fort Worth Center
08:13PM 32.2358 -96.5906 212° Southwest 441 507 34,000  Level Fort Worth Center
08:14PM 32.1297 -96.6653 211° Southwest 441 507 34,000 -480 Level Fort Worth Center
08:15PM 32.0258 -96.7394 211° Southwest 441 507 33,100 -1,200 Descending Fort Worth Center
08:16PM 31.9300 -96.8064 211° Southwest 441 507 31,700 -1,560 Descending Fort Worth Center
08:17PM 31.8422 -96.8672 210° Southwest 454 522 30,400 -1,440 Descending Houston Center
08:18PM 31.7347 -96.9414 210° Southwest 448 516 29,100 -1,440 Descending Houston Center
08:19PM 31.6228 -97.0192 211° Southwest 461 531 27,500 -1,680 Descending Houston Center
08:20PM 31.5094 -97.0911 208° Southwest 459 528 25,700 -1,980 Descending Houston Center
08:21PM 31.3944 -97.1361 198° South 433 498 23,500 -1,800 Descending Houston Center
08:22PM 31.2661 -97.1864 199° South 414 476 22,000 -1,560 Descending Houston Center
08:23PM 31.1572 -97.2294 199° South 409 471 20,300 -2,040 Descending Houston Center
08:24PM 31.0519 -97.2708 199° South 401 461 17,800 -2,400 Descending Houston Center
08:25PM 30.9533 -97.3100 199° South 393 452 15,400 -2,400 Descending Houston Center
08:26PM 30.8511 -97.3475 197° South 387 445 13,000 -1,680 Descending Houston Center
08:27PM 30.7531 -97.4069 208° Southwest 339 390 12,000 -1,020 Descending Houston Center
08:28PM 30.6814 -97.4608 213° Southwest 309 356 10,900 -1,320 Descending Houston Center
08:29PM 30.6106 -97.5081 210° Southwest 295 339 9,300 -1,620 Descending Houston Center
08:30PM 30.5425 -97.5561 211° Southwest 286 329 7,600 -1,680 Descending Houston Center
08:31PM 30.4756 -97.6011 210° Southwest 278 320 5,900 -1,680 Descending Houston Center
08:32PM 30.4117 -97.6461 211° Southwest 270 311 4,200 -1,320 Descending Houston Center
08:33PM 30.3542 -97.6822 208° Southwest 241 277 3,200 -1,020 Descending Houston Center
08:34PM 30.2964 -97.6811 179° South 211 243 2,100 -960 Descending Houston Center
08:35PM 30.2539 -97.6794 178° South 173 199 1,300 -780 Descending Houston Center